West Point, VA

7:54 PM EST on March 03, 2015 (GMT -0500)
Richmond International | Change Station
CLOSE
Current Station
Airport
Location: Richmond,
Elevation: 161 ft
Nearby Weather Stations

Elev 161 ft 37.51 °N, 77.32 °W | Updated 1 hour ago

Overcast
Overcast
36 °F
Feels Like 28 °F
N
12
Wind Variable Wind from SSW

Today
High -- | Low -- °F
--% Chance of Precip.
Yesterday
High -- | Low -- °F
Precip. -- in
6:36 AM 6:02 PM
Waxing Gibbous, 97% visible
Pressure 30.15 in
Visibility 7.0 miles
Clouds Overcast 1300 ft
Windchill 28 °F
Dew Point 30 °F
Humidity 79%
Rainfall 0.00 in
Snow Depth Not available.
UV 0 out of 12
Pollen 5.00 out of 12
Air Quality Not available.
Flu Activity Not available.
METAR KRIC 032354Z 21010KT 7SM -RA OVC013 02/M01 A3013 RMK AO2 RAB41 SLP208 P0000 60000 T00221011 10033 20017 56030

More Conditions Fewer Conditions

Pressure 30.15 in
Visibility 7.0 miles
Clouds Overcast 1300 ft
Windchill 28 °F
Dew Point 30 °F
Humidity 79%
Rainfall 0.00 in
Snow Depth Not available.
UV 0 out of 12
Pollen 5.00 out of 12
Air Quality Not available.
Flu Activity Not available.
METAR KRIC 032354Z 21010KT 7SM -RA OVC013 02/M01 A3013 RMK AO2 RAB41 SLP208 P0000 60000 T00221011 10033 20017 56030

More Conditions Fewer Conditions

10-Day Weather Forecast

Almanac

Astronomy

Mar. 03, 2015 Rise Set
Actual Time
Civil Twilight
Nautical Twilight
Astronomical Twilight
Moon
Length of Visible Light
Length of Day
Tomorrow will be .
, % of the Moon is Illuminated

Today's Extremes

State Highs State Lows

Community

WunderPhotos

Upload Photos

1,802,340 photos uploaded!

WunderBlogs® & News

Nearby

Air Quality

  Air Quality AQ Index Pollutant
Not available.

Snow Depth

Station Depth Elevation

Earthquake Activity

City Distance Mag. Time & Date
Minimum magnitude displayed is 2.5.

Coastal Water Temperatures

Place Temperature

Nearby Weather Stations